createdAt,value
2024-03-28T00:00:14.808Z,73.49
2024-03-28T00:01:14.903Z,73.96
2024-03-28T00:02:14.941Z,73.29
2024-03-28T00:03:15.015Z,73.17
2024-03-28T00:04:15.064Z,73.46
2024-03-28T00:05:15.079Z,72.72
2024-03-28T00:06:15.125Z,72.31
2024-03-28T00:07:15.209Z,72.48
2024-03-28T00:08:15.200Z,74.46
2024-03-28T00:09:15.223Z,74.92
2024-03-28T00:10:15.292Z,74.69
2024-03-28T00:11:15.279Z,74.46
2024-03-28T00:12:15.326Z,74.77
2024-03-28T00:13:15.373Z,74.50
2024-03-28T00:14:15.402Z,74.47
2024-03-28T00:15:15.444Z,74.87
2024-03-28T00:16:15.490Z,74.40
2024-03-28T00:17:15.501Z,74.11
2024-03-28T00:18:15.538Z,75.50
2024-03-28T00:19:16.226Z,77.01
2024-03-28T00:20:16.608Z,77.03
2024-03-28T00:21:15.616Z,76.80
2024-03-28T00:22:15.640Z,76.97
2024-03-28T00:23:15.632Z,76.79
2024-03-28T00:24:15.618Z,76.47
2024-03-28T00:25:15.700Z,76.69
2024-03-28T00:26:15.613Z,76.37
2024-03-28T00:27:15.620Z,76.63
2024-03-28T00:28:15.660Z,76.36
2024-03-28T00:29:15.620Z,75.74
2024-03-28T00:30:15.608Z,75.11
2024-03-28T00:31:15.667Z,74.89
2024-03-28T00:32:15.706Z,74.44
2024-03-28T00:33:18.891Z,74.50
2024-03-28T00:34:15.804Z,74.00
2024-03-28T00:35:15.749Z,73.65
2024-03-28T00:36:15.743Z,73.47
2024-03-28T00:37:15.802Z,73.10
2024-03-28T00:38:15.770Z,72.70
2024-03-28T00:39:15.742Z,72.72
2024-03-28T00:40:15.759Z,72.33
2024-03-28T00:41:15.743Z,72.55
2024-03-28T00:42:15.752Z,73.76
2024-03-28T00:43:15.839Z,73.45
2024-03-28T00:44:15.782Z,73.46
2024-03-28T00:45:15.780Z,73.85
2024-03-28T00:46:15.795Z,73.37
2024-03-28T00:47:15.785Z,73.26
2024-03-28T00:48:15.763Z,73.35
2024-03-28T00:49:15.776Z,73.60
2024-03-28T00:50:15.785Z,73.78
2024-03-28T00:51:15.782Z,73.86
2024-03-28T00:52:15.800Z,73.34
2024-03-28T00:53:15.781Z,73.51
2024-03-28T00:54:15.798Z,73.95
2024-03-28T00:55:15.873Z,73.80
2024-03-28T00:56:15.804Z,73.41
2024-03-28T00:57:15.789Z,73.17
2024-03-28T00:58:15.814Z,72.88
2024-03-28T00:59:15.784Z,72.87
2024-03-28T01:00:15.805Z,73.18
2024-03-28T01:01:15.857Z,73.27
2024-03-28T01:02:15.823Z,74.16
2024-03-28T01:03:15.836Z,74.02
2024-03-28T01:04:15.885Z,74.17
2024-03-28T01:05:15.814Z,73.78
2024-03-28T01:06:15.825Z,73.66
2024-03-28T01:07:15.835Z,72.89
2024-03-28T01:08:15.824Z,73.03
2024-03-28T01:09:15.810Z,72.76
2024-03-28T01:10:15.850Z,72.74
2024-03-28T01:11:15.828Z,72.53
2024-03-28T01:12:15.819Z,72.86
2024-03-28T01:13:15.872Z,72.56
2024-03-28T01:14:15.803Z,72.77
2024-03-28T01:15:15.830Z,72.66
2024-03-28T01:16:15.850Z,72.99
2024-03-28T01:17:15.851Z,72.97
2024-03-28T01:18:15.827Z,72.69
2024-03-28T01:19:15.864Z,72.17
2024-03-28T01:20:15.817Z,72.59
2024-03-28T01:21:15.855Z,74.00
2024-03-28T01:22:15.866Z,75.86
2024-03-28T01:23:15.839Z,76.93
2024-03-28T01:24:15.828Z,77.43
2024-03-28T01:25:15.872Z,77.43
2024-03-28T01:26:15.849Z,77.23
2024-03-28T01:27:15.829Z,77.03
2024-03-28T01:28:15.860Z,76.65
2024-03-28T01:29:15.851Z,76.00
2024-03-28T01:30:15.845Z,75.28
2024-03-28T01:31:15.881Z,74.87
2024-03-28T01:32:15.853Z,74.48
2024-03-28T01:33:15.858Z,74.19
2024-03-28T01:34:15.950Z,73.79
2024-03-28T01:35:15.983Z,73.66
2024-03-28T01:36:16.013Z,73.90
2024-03-28T01:37:16.035Z,73.80
2024-03-28T01:38:16.102Z,73.72
2024-03-28T01:39:16.113Z,73.81
2024-03-28T01:40:16.187Z,74.37
2024-03-28T01:41:16.185Z,74.51
2024-03-28T01:42:16.220Z,75.69
2024-03-28T01:43:16.326Z,76.62
2024-03-28T01:44:16.305Z,77.07
2024-03-28T01:45:16.474Z,76.90
2024-03-28T01:46:20.035Z,76.20
2024-03-28T01:47:35.512Z,75.79
2024-03-28T01:48:17.604Z,75.74
2024-03-28T01:49:16.551Z,74.74
2024-03-28T01:50:16.546Z,74.12
2024-03-28T01:51:16.566Z,73.98
2024-03-28T01:52:16.591Z,74.10
2024-03-28T01:53:16.565Z,74.07
2024-03-28T01:54:16.647Z,74.03
2024-03-28T01:55:16.590Z,74.12
2024-03-28T01:56:16.580Z,74.28
2024-03-28T01:57:16.545Z,74.40
2024-03-28T01:58:16.572Z,74.78
2024-03-28T01:59:16.587Z,74.77
2024-03-28T02:00:16.561Z,74.44
2024-03-28T02:01:16.604Z,74.32
2024-03-28T02:02:16.589Z,74.21
2024-03-28T02:03:16.595Z,74.27
2024-03-28T02:04:16.637Z,74.24
2024-03-28T02:05:16.592Z,74.15
2024-03-28T02:06:16.576Z,74.04
2024-03-28T02:07:16.621Z,74.13
2024-03-28T02:08:16.598Z,74.30
2024-03-28T02:09:16.592Z,74.44
2024-03-28T02:10:16.637Z,74.76
2024-03-28T02:11:16.616Z,74.98
2024-03-28T02:12:16.604Z,75.07
2024-03-28T02:13:16.617Z,74.70
2024-03-28T02:14:16.596Z,74.64
2024-03-28T02:15:16.594Z,74.89
2024-03-28T02:16:16.612Z,74.72
2024-03-28T02:17:16.608Z,74.39
2024-03-28T02:18:16.610Z,74.64
2024-03-28T02:19:16.635Z,74.81
2024-03-28T02:20:16.639Z,75.49
2024-03-28T02:21:16.633Z,75.94
2024-03-28T02:22:16.664Z,76.26
2024-03-28T02:23:16.604Z,76.92
2024-03-28T02:24:16.617Z,76.85
2024-03-28T02:25:16.695Z,77.14
2024-03-28T02:26:16.718Z,76.88
2024-03-28T02:27:16.727Z,77.67
2024-03-28T02:28:16.832Z,77.58
2024-03-28T02:29:16.852Z,77.69
2024-03-28T02:30:16.894Z,77.99
2024-03-28T02:31:16.990Z,77.72
2024-03-28T02:32:16.994Z,77.68
2024-03-28T02:33:17.057Z,77.79
2024-03-28T02:34:17.128Z,77.52
2024-03-28T02:35:17.138Z,77.46
2024-03-28T02:36:17.140Z,77.20
2024-03-28T02:37:17.177Z,77.50
2024-03-28T02:38:17.252Z,77.75
2024-03-28T02:39:17.316Z,78.19
2024-03-28T02:40:17.353Z,78.57
2024-03-28T02:41:17.399Z,78.59
2024-03-28T02:42:17.428Z,78.47
2024-03-28T02:43:17.459Z,77.93
2024-03-28T02:44:17.497Z,77.31
2024-03-28T02:45:17.523Z,77.08
2024-03-28T02:46:17.576Z,77.04
2024-03-28T02:47:17.606Z,77.43
2024-03-28T02:48:17.674Z,76.94
2024-03-28T02:49:17.694Z,77.05
2024-03-28T02:50:17.752Z,77.19
2024-03-28T02:51:17.768Z,77.57
2024-03-28T02:52:17.844Z,77.37
2024-03-28T02:53:17.853Z,77.48
2024-03-28T02:54:17.866Z,77.51
2024-03-28T02:55:17.917Z,77.66
2024-03-28T02:56:17.963Z,77.79
2024-03-28T02:57:18.030Z,77.58
2024-03-28T02:58:18.054Z,77.43
2024-03-28T02:59:18.099Z,77.61
2024-03-28T03:00:18.167Z,77.65
2024-03-28T03:01:18.221Z,77.11
2024-03-28T03:02:18.213Z,77.57
2024-03-28T03:03:18.259Z,77.47
2024-03-28T03:04:18.342Z,77.44
2024-03-28T03:05:18.351Z,77.66
2024-03-28T03:06:18.380Z,77.46
2024-03-28T03:07:18.464Z,77.55
2024-03-28T03:08:18.493Z,76.79
2024-03-28T03:09:18.510Z,76.90
2024-03-28T03:10:18.597Z,77.31
2024-03-28T03:11:18.649Z,77.47
2024-03-28T03:12:18.683Z,77.52
2024-03-28T03:13:18.728Z,77.82
2024-03-28T03:14:18.799Z,78.50
2024-03-28T03:15:18.813Z,78.16
2024-03-28T03:16:18.893Z,78.69
2024-03-28T03:17:18.913Z,78.44
2024-03-28T03:18:18.948Z,77.85
2024-03-28T03:19:18.998Z,77.72
2024-03-28T03:20:19.044Z,77.14
2024-03-28T03:21:19.088Z,76.52
2024-03-28T03:22:19.100Z,77.28
2024-03-28T03:23:19.155Z,78.67
2024-03-28T03:24:19.242Z,78.97
2024-03-28T03:25:19.335Z,79.50
2024-03-28T03:26:19.319Z,79.45
2024-03-28T03:27:19.366Z,79.32
2024-03-28T03:28:19.445Z,79.03
2024-03-28T03:29:19.442Z,79.06
2024-03-28T03:30:19.464Z,79.10
2024-03-28T03:31:19.644Z,80.19
2024-03-28T03:32:19.622Z,80.78
2024-03-28T03:33:19.642Z,81.94
2024-03-28T03:34:19.732Z,82.16
2024-03-28T03:35:19.748Z,82.08
2024-03-28T03:36:19.774Z,81.94
2024-03-28T03:37:19.784Z,81.54
2024-03-28T03:38:19.836Z,81.26
2024-03-28T03:39:19.864Z,80.54
2024-03-28T03:40:19.937Z,78.17
2024-03-28T03:41:19.956Z,77.18
2024-03-28T03:42:19.998Z,78.15
2024-03-28T03:43:20.050Z,80.26
2024-03-28T03:44:20.045Z,81.41
2024-03-28T03:45:20.117Z,81.92
2024-03-28T03:46:20.172Z,81.90
2024-03-28T03:47:20.161Z,81.71
2024-03-28T03:48:20.191Z,81.60
2024-03-28T03:49:20.240Z,81.68
2024-03-28T03:50:20.241Z,81.25
2024-03-28T03:51:20.287Z,81.33
2024-03-28T03:52:20.386Z,81.32
2024-03-28T03:53:20.420Z,80.82
2024-03-28T03:54:20.448Z,80.59
2024-03-28T03:55:20.514Z,80.92
2024-03-28T03:56:20.515Z,80.85
2024-03-28T03:57:20.591Z,80.58
2024-03-28T03:58:20.698Z,80.28
2024-03-28T03:59:20.719Z,78.34
2024-03-28T04:00:20.740Z,78.83
2024-03-28T04:01:20.792Z,78.50
2024-03-28T04:02:20.814Z,78.70
2024-03-28T04:03:20.855Z,78.76
2024-03-28T04:04:20.913Z,78.89
2024-03-28T04:05:20.950Z,79.31
2024-03-28T04:06:20.993Z,79.44
2024-03-28T04:07:21.061Z,79.36
2024-03-28T04:08:21.068Z,79.88
2024-03-28T04:09:21.138Z,80.55
2024-03-28T04:10:21.181Z,80.53
2024-03-28T04:11:21.190Z,80.36
2024-03-28T04:12:21.238Z,80.46
2024-03-28T04:13:21.280Z,80.24
2024-03-28T04:14:21.315Z,80.21
2024-03-28T04:15:21.271Z,80.45
2024-03-28T04:16:21.392Z,80.35
2024-03-28T04:17:21.361Z,80.23
2024-03-28T04:18:21.435Z,80.33
2024-03-28T04:19:21.480Z,80.39
2024-03-28T04:20:21.491Z,80.56
2024-03-28T04:21:21.553Z,80.81
2024-03-28T04:22:21.585Z,80.92
2024-03-28T04:23:21.598Z,80.84
2024-03-28T04:24:21.636Z,80.75
2024-03-28T04:25:21.751Z,80.78
2024-03-28T04:26:21.748Z,80.84
2024-03-28T04:27:21.809Z,80.71
2024-03-28T04:28:21.871Z,80.18
2024-03-28T04:29:21.867Z,80.10
2024-03-28T04:30:21.886Z,80.08
2024-03-28T04:31:21.974Z,80.06
2024-03-28T04:32:21.965Z,79.64
2024-03-28T04:33:22.056Z,79.50
2024-03-28T04:34:22.078Z,79.27
2024-03-28T04:35:22.097Z,78.95
2024-03-28T04:36:22.171Z,78.65
2024-03-28T04:37:22.225Z,78.55
2024-03-28T04:38:22.264Z,78.98
2024-03-28T04:39:22.247Z,79.23
2024-03-28T04:40:22.323Z,79.98
2024-03-28T04:41:22.297Z,79.66
2024-03-28T04:42:22.335Z,79.24
2024-03-28T04:43:22.396Z,80.20
2024-03-28T04:44:22.407Z,80.39
2024-03-28T04:45:22.520Z,80.57
2024-03-28T04:46:22.522Z,80.76
2024-03-28T04:47:22.527Z,81.24
2024-03-28T04:48:22.577Z,81.61
2024-03-28T04:49:22.676Z,81.90
2024-03-28T04:50:22.617Z,82.09
2024-03-28T04:51:22.664Z,82.17
2024-03-28T04:52:22.669Z,82.42
2024-03-28T04:53:22.707Z,82.95
2024-03-28T04:54:22.789Z,82.40
2024-03-28T04:55:24.546Z,82.57
2024-03-28T04:56:22.821Z,82.25
2024-03-28T04:57:30.353Z,82.48
2024-03-28T04:58:30.376Z,82.13
2024-03-28T04:59:30.541Z,81.83
2024-03-28T05:00:30.660Z,81.47
2024-03-28T05:01:30.782Z,81.45
2024-03-28T05:02:30.968Z,81.32
2024-03-28T05:03:31.133Z,81.30
2024-03-28T05:04:31.237Z,81.12
2024-03-28T05:05:31.350Z,80.97
2024-03-28T05:06:31.547Z,80.93
2024-03-28T05:07:31.707Z,80.76
2024-03-28T05:08:31.914Z,80.68
2024-03-28T05:09:31.885Z,80.58
2024-03-28T05:10:31.927Z,80.62
2024-03-28T05:11:32.005Z,80.89
2024-03-28T05:12:31.901Z,81.16
2024-03-28T05:13:31.911Z,81.08
2024-03-28T05:14:31.912Z,80.96
2024-03-28T05:15:31.915Z,80.85
2024-03-28T05:16:31.939Z,81.02
2024-03-28T05:17:31.925Z,81.02
2024-03-28T05:18:31.941Z,81.03
2024-03-28T05:19:31.915Z,81.04
2024-03-28T05:20:31.917Z,81.08
2024-03-28T05:21:31.908Z,81.11
2024-03-28T05:22:31.931Z,81.10
2024-03-28T05:23:31.916Z,80.88
2024-03-28T05:24:31.933Z,80.84
2024-03-28T05:25:31.928Z,80.94
2024-03-28T05:26:31.978Z,80.93
2024-03-28T05:27:31.991Z,80.95
2024-03-28T05:28:32.104Z,80.95
2024-03-28T05:29:32.158Z,80.60
2024-03-28T05:30:32.146Z,80.46
2024-03-28T05:31:32.181Z,80.46
2024-03-28T05:32:32.276Z,80.48
2024-03-28T05:33:32.286Z,80.37
2024-03-28T05:34:32.339Z,79.88
2024-03-28T05:35:32.346Z,78.97
2024-03-28T05:36:32.387Z,78.84
2024-03-28T05:37:32.457Z,78.98
2024-03-28T05:38:32.490Z,78.87
2024-03-28T05:39:32.576Z,78.80
2024-03-28T05:40:32.595Z,78.75
2024-03-28T05:41:32.621Z,78.69
2024-03-28T05:42:32.660Z,78.56
2024-03-28T05:43:32.709Z,78.41
2024-03-28T05:44:32.729Z,78.37
2024-03-28T05:45:32.779Z,78.52
2024-03-28T05:46:32.863Z,78.52
2024-03-28T05:47:32.860Z,78.43
2024-03-28T05:48:32.936Z,78.31
2024-03-28T05:49:32.961Z,78.26
2024-03-28T05:50:32.999Z,78.36
2024-03-28T05:51:33.081Z,78.91
2024-03-28T05:52:33.076Z,78.27
2024-03-28T05:53:33.133Z,77.66
2024-03-28T05:54:33.162Z,77.99
2024-03-28T05:55:33.333Z,78.35
2024-03-28T05:56:33.291Z,78.41
2024-03-28T05:57:33.362Z,77.89
2024-03-28T05:58:33.347Z,78.15
2024-03-28T05:59:33.443Z,78.17
2024-03-28T06:00:33.495Z,78.41
2024-03-28T06:01:33.574Z,78.67
2024-03-28T06:02:33.493Z,78.92
2024-03-28T06:03:33.588Z,79.04
2024-03-28T06:04:33.620Z,78.84
2024-03-28T06:05:33.666Z,78.57
2024-03-28T06:06:33.693Z,78.98
2024-03-28T06:07:33.710Z,79.06
2024-03-28T06:08:33.744Z,78.85
2024-03-28T06:09:33.793Z,78.65
2024-03-28T06:10:33.867Z,78.53
2024-03-28T06:11:33.873Z,78.78
2024-03-28T06:12:33.927Z,78.77
2024-03-28T06:13:33.924Z,78.58
2024-03-28T06:14:33.950Z,78.40
2024-03-28T06:15:34.030Z,78.66
2024-03-28T06:16:34.429Z,78.80
2024-03-28T06:17:34.074Z,78.45
2024-03-28T06:18:34.096Z,77.97
2024-03-28T06:19:34.161Z,77.71
2024-03-28T06:20:34.200Z,77.85
2024-03-28T06:21:34.275Z,78.04
2024-03-28T06:22:34.371Z,77.42
2024-03-28T06:23:34.272Z,77.93
2024-03-28T06:24:34.315Z,77.19
2024-03-28T06:25:34.382Z,77.52
2024-03-28T06:26:34.474Z,76.44
2024-03-28T06:27:34.497Z,76.48
2024-03-28T06:28:34.469Z,76.82
2024-03-28T06:29:34.543Z,76.90
2024-03-28T06:30:34.599Z,77.16
2024-03-28T06:31:34.634Z,76.96
2024-03-28T06:32:34.731Z,77.06
2024-03-28T06:33:34.754Z,77.18
2024-03-28T06:34:34.800Z,77.20
2024-03-28T06:35:34.792Z,77.42
2024-03-28T06:36:34.837Z,78.12
2024-03-28T06:37:34.871Z,78.79
2024-03-28T06:38:34.912Z,78.95
2024-03-28T06:39:34.985Z,79.39
2024-03-28T06:40:34.952Z,79.39
2024-03-28T06:41:35.011Z,79.26
2024-03-28T06:42:35.142Z,78.78
2024-03-28T06:43:35.068Z,78.72
2024-03-28T06:44:35.167Z,78.39
2024-03-28T06:45:35.173Z,78.40
2024-03-28T06:46:35.199Z,78.51
2024-03-28T06:47:35.239Z,78.82
2024-03-28T06:48:35.281Z,78.81
2024-03-28T06:49:35.331Z,78.66
2024-03-28T06:50:35.358Z,78.34
2024-03-28T06:51:35.398Z,78.17
2024-03-28T06:52:35.489Z,77.76
2024-03-28T06:53:35.534Z,77.55
2024-03-28T06:54:35.568Z,77.24
2024-03-28T06:55:35.599Z,76.98
2024-03-28T06:56:35.643Z,76.69
2024-03-28T06:57:35.668Z,75.83
2024-03-28T06:58:35.680Z,74.63
2024-03-28T06:59:35.726Z,74.70
2024-03-28T07:00:35.780Z,75.24
2024-03-28T07:01:35.828Z,75.49
2024-03-28T07:02:35.887Z,74.56
2024-03-28T07:03:35.896Z,74.56
2024-03-28T07:04:35.927Z,75.16
2024-03-28T07:05:35.962Z,74.80
2024-03-28T07:06:36.009Z,75.50
2024-03-28T07:07:36.040Z,75.28
2024-03-28T07:08:36.112Z,74.54
2024-03-28T07:09:36.136Z,74.54
2024-03-28T07:10:36.197Z,74.33
2024-03-28T07:11:36.258Z,74.15
2024-03-28T07:12:36.267Z,74.22
2024-03-28T07:13:36.316Z,74.26
2024-03-28T07:14:36.350Z,74.28
2024-03-28T07:15:36.393Z,73.79
2024-03-28T07:16:36.439Z,73.49
2024-03-28T07:17:36.478Z,73.45
2024-03-28T07:18:36.573Z,70.33
2024-03-28T07:19:36.556Z,65.71
2024-03-28T07:20:36.612Z,63.57
2024-03-28T07:21:36.617Z,64.15
2024-03-28T07:22:36.673Z,69.36
2024-03-28T07:23:36.706Z,68.22
2024-03-28T07:24:36.761Z,60.67
2024-03-28T07:25:36.778Z,62.26
2024-03-28T07:26:37.025Z,62.81
2024-03-28T07:27:36.859Z,62.43
2024-03-28T07:28:36.920Z,66.18
2024-03-28T07:29:36.977Z,67.21
2024-03-28T07:30:37.045Z,62.66
2024-03-28T07:31:37.039Z,54.58
2024-03-28T07:32:37.090Z,55.03
2024-03-28T07:33:37.138Z,51.87
2024-03-28T07:34:37.151Z,49.48
2024-03-28T07:35:37.205Z,49.55
2024-03-28T07:36:37.229Z,50.06
2024-03-28T07:37:37.279Z,49.00
2024-03-28T07:38:37.325Z,47.94
2024-03-28T07:39:37.356Z,46.29
2024-03-28T07:40:37.405Z,49.09
2024-03-28T07:41:37.420Z,47.38
2024-03-28T07:42:37.454Z,46.88
2024-03-28T07:43:37.519Z,45.96
2024-03-28T07:44:37.531Z,45.77
2024-03-28T07:45:37.595Z,46.29
2024-03-28T07:46:37.609Z,45.61
2024-03-28T07:47:37.694Z,45.64
2024-03-28T07:48:37.677Z,44.15
2024-03-28T07:49:37.708Z,45.04
2024-03-28T07:50:37.738Z,47.86
2024-03-28T07:51:37.813Z,46.64
2024-03-28T07:52:37.887Z,45.79
2024-03-28T07:53:37.904Z,43.30
2024-03-28T07:54:37.930Z,44.46
2024-03-28T07:55:37.960Z,43.47
2024-03-28T07:56:38.041Z,43.26
2024-03-28T07:57:38.058Z,43.18
2024-03-28T07:58:38.143Z,42.85
2024-03-28T07:59:38.164Z,43.27
2024-03-28T08:00:38.177Z,43.49
2024-03-28T08:01:38.250Z,43.24
2024-03-28T08:02:38.280Z,42.23
2024-03-28T08:03:39.554Z,41.75
2024-03-28T08:04:38.371Z,42.27
2024-03-28T08:05:38.406Z,42.39
2024-03-28T08:06:38.456Z,43.32
2024-03-28T08:07:38.502Z,43.74
2024-03-28T08:08:38.558Z,41.40
2024-03-28T08:09:38.593Z,41.71
2024-03-28T08:10:38.629Z,41.52
2024-03-28T08:11:38.693Z,40.68
2024-03-28T08:12:38.737Z,41.22
2024-03-28T08:13:38.757Z,41.29
2024-03-28T08:14:38.798Z,40.91
2024-03-28T08:15:38.880Z,41.21
2024-03-28T08:16:38.934Z,40.78
2024-03-28T08:17:38.954Z,41.28
2024-03-28T08:18:38.968Z,41.32
2024-03-28T08:19:39.009Z,40.78
2024-03-28T08:20:39.078Z,41.54
2024-03-28T08:21:39.136Z,42.07
2024-03-28T08:22:39.165Z,41.61
2024-03-28T08:23:39.195Z,41.83
2024-03-28T08:24:39.243Z,41.81
2024-03-28T08:25:39.313Z,41.67
2024-03-28T08:26:39.322Z,41.78
2024-03-28T08:27:39.350Z,41.20
2024-03-28T08:28:39.392Z,41.39
2024-03-28T08:29:39.438Z,40.47
2024-03-28T08:30:39.483Z,40.97
2024-03-28T08:31:39.499Z,40.32
2024-03-28T08:32:39.567Z,40.55
2024-03-28T08:33:39.604Z,40.76
2024-03-28T08:34:39.622Z,41.47
2024-03-28T08:35:39.695Z,41.03
2024-03-28T08:36:39.728Z,40.85
2024-03-28T08:37:39.763Z,41.17
2024-03-28T08:38:39.818Z,40.24
2024-03-28T08:39:39.836Z,40.18
2024-03-28T08:40:39.862Z,40.78
2024-03-28T08:41:39.934Z,40.59
2024-03-28T08:42:39.974Z,40.73
2024-03-28T08:43:39.999Z,40.23
2024-03-28T08:44:40.053Z,40.66
2024-03-28T08:45:40.103Z,40.44
2024-03-28T08:46:40.130Z,40.84
2024-03-28T08:47:40.129Z,40.41
2024-03-28T08:48:40.180Z,40.29
2024-03-28T08:49:40.229Z,39.37
2024-03-28T08:50:40.284Z,39.03
2024-03-28T08:51:40.319Z,39.48
2024-03-28T08:52:40.358Z,40.15
2024-03-28T08:53:40.383Z,39.77
2024-03-28T08:54:40.433Z,39.97
2024-03-28T08:55:40.463Z,39.46
2024-03-28T08:56:40.512Z,40.06
2024-03-28T08:57:40.580Z,39.86
2024-03-28T08:58:40.649Z,39.57
2024-03-28T08:59:40.656Z,39.43
2024-03-28T09:00:40.715Z,39.71
2024-03-28T09:01:40.778Z,39.72
2024-03-28T09:02:40.943Z,39.46
2024-03-28T09:03:40.861Z,39.19
2024-03-28T09:04:40.910Z,39.01
2024-03-28T09:05:40.934Z,38.97
2024-03-28T09:06:40.967Z,39.12
2024-03-28T09:07:41.000Z,39.81
2024-03-28T09:08:41.048Z,39.39
2024-03-28T09:09:41.067Z,39.46
2024-03-28T09:10:41.156Z,39.63
2024-03-28T09:11:41.195Z,40.03
2024-03-28T09:12:41.197Z,39.93
2024-03-28T09:13:41.254Z,40.30
2024-03-28T09:14:41.293Z,39.62
2024-03-28T09:15:41.380Z,39.78
2024-03-28T09:16:41.406Z,40.11
2024-03-28T09:17:41.443Z,40.12
2024-03-28T09:18:41.478Z,40.32
2024-03-28T09:19:41.528Z,39.64
2024-03-28T09:20:41.582Z,39.83
2024-03-28T09:21:41.600Z,39.39
2024-03-28T09:22:41.652Z,39.10
2024-03-28T09:23:41.656Z,39.46
2024-03-28T09:24:41.694Z,39.89
2024-03-28T09:25:41.729Z,39.68
2024-03-28T09:26:44.786Z,39.33
2024-03-28T09:27:41.792Z,39.75
2024-03-28T09:28:41.822Z,40.05
2024-03-28T09:29:41.820Z,38.72
2024-03-28T09:30:41.812Z,38.81
2024-03-28T09:31:41.842Z,39.29
2024-03-28T09:32:41.829Z,39.55
2024-03-28T09:33:41.803Z,39.41
2024-03-28T09:34:41.823Z,39.78
2024-03-28T09:35:41.831Z,39.67
2024-03-28T09:36:41.836Z,39.26
2024-03-28T09:37:41.808Z,39.35
2024-03-28T09:38:41.823Z,39.66
2024-03-28T09:39:41.820Z,39.83
2024-03-28T09:40:41.824Z,39.64
2024-03-28T09:41:41.842Z,39.78
2024-03-28T09:42:41.839Z,40.06
2024-03-28T09:43:41.835Z,39.91
2024-03-28T09:44:41.823Z,40.03
2024-03-28T09:45:41.825Z,39.94
2024-03-28T09:46:41.829Z,39.94
2024-03-28T09:47:41.889Z,40.15
2024-03-28T09:48:41.839Z,39.72
2024-03-28T09:49:41.835Z,40.13
2024-03-28T09:50:41.843Z,39.98
2024-03-28T09:51:41.843Z,40.07
2024-03-28T09:52:41.834Z,40.54
2024-03-28T09:53:41.841Z,40.65
2024-03-28T09:54:41.857Z,40.69
2024-03-28T09:55:41.872Z,40.67
2024-03-28T09:56:41.846Z,40.79
2024-03-28T09:57:41.865Z,40.80
2024-03-28T09:58:41.843Z,40.81
2024-03-28T09:59:41.867Z,40.80
2024-03-28T10:00:41.888Z,40.77
2024-03-28T10:01:41.849Z,41.00
2024-03-28T10:02:41.861Z,40.94
2024-03-28T10:03:41.886Z,41.11
2024-03-28T10:04:41.862Z,40.56
2024-03-28T10:05:41.880Z,40.53
2024-03-28T10:06:41.847Z,40.93
2024-03-28T10:07:41.883Z,41.00
2024-03-28T10:08:41.882Z,40.49
2024-03-28T10:09:41.843Z,40.34
2024-03-28T10:10:41.864Z,40.22
2024-03-28T10:11:41.848Z,40.77
2024-03-28T10:12:41.848Z,41.07
2024-03-28T10:13:41.871Z,40.50
2024-03-28T10:14:41.870Z,40.38
2024-03-28T10:15:41.875Z,40.38
2024-03-28T10:16:41.884Z,40.96
2024-03-28T10:17:41.911Z,41.13
2024-03-28T10:18:41.874Z,41.60
2024-03-28T10:19:41.903Z,41.59
2024-03-28T10:20:41.913Z,41.68
2024-03-28T10:21:41.941Z,41.41
2024-03-28T10:22:41.895Z,41.44
2024-03-28T10:23:41.887Z,41.69
2024-03-28T10:24:41.891Z,41.46
2024-03-28T10:25:41.920Z,41.71
2024-03-28T10:26:41.897Z,40.79
2024-03-28T10:27:41.903Z,42.05
2024-03-28T10:28:41.930Z,42.24
2024-03-28T10:29:41.914Z,41.14
2024-03-28T10:30:41.926Z,41.36
2024-03-28T10:31:41.928Z,41.44
2024-03-28T10:32:41.912Z,42.01
2024-03-28T10:33:41.936Z,41.65
2024-03-28T10:34:42.490Z,41.49
2024-03-28T10:35:43.009Z,41.27
2024-03-28T10:36:42.062Z,41.28
2024-03-28T10:37:54.708Z,41.33
2024-03-28T10:38:43.128Z,40.95
2024-03-28T10:39:42.117Z,41.07
2024-03-28T10:40:42.161Z,40.57
2024-03-28T10:41:42.132Z,40.16
2024-03-28T10:42:42.112Z,40.21
2024-03-28T10:43:42.119Z,40.59
2024-03-28T10:44:42.113Z,41.21
2024-03-28T10:45:42.122Z,40.68
2024-03-28T10:46:42.124Z,40.45
2024-03-28T10:47:42.136Z,41.10
2024-03-28T10:48:42.139Z,41.09
2024-03-28T10:49:44.124Z,41.05
2024-03-28T10:50:42.164Z,41.67
2024-03-28T10:51:42.154Z,40.55
2024-03-28T10:52:42.145Z,39.99
2024-03-28T10:53:42.134Z,39.47
2024-03-28T10:54:42.142Z,39.53
2024-03-28T10:55:42.159Z,39.15
2024-03-28T10:56:42.193Z,39.40
2024-03-28T10:57:42.157Z,39.21
2024-03-28T10:58:42.151Z,39.46
2024-03-28T10:59:42.145Z,38.72
2024-03-28T11:00:42.208Z,38.27
2024-03-28T11:01:42.180Z,37.68
2024-03-28T11:02:42.178Z,38.34
2024-03-28T11:03:42.170Z,38.78
2024-03-28T11:04:42.166Z,39.21
2024-03-28T11:05:42.186Z,38.54
2024-03-28T11:06:42.177Z,38.64
2024-03-28T11:07:42.182Z,38.74
2024-03-28T11:08:42.205Z,38.78
2024-03-28T11:09:42.181Z,39.25
2024-03-28T11:10:42.180Z,38.79
2024-03-28T11:11:42.183Z,38.77
2024-03-28T11:12:42.186Z,38.80
2024-03-28T11:13:42.186Z,38.66
2024-03-28T11:14:42.198Z,38.22
2024-03-28T11:15:42.205Z,38.40
2024-03-28T11:16:42.210Z,38.21
2024-03-28T11:17:42.220Z,37.82
2024-03-28T11:18:42.249Z,38.19
2024-03-28T11:19:42.300Z,38.69
2024-03-28T11:20:42.338Z,38.75
2024-03-28T11:21:42.336Z,38.68
2024-03-28T11:22:42.397Z,38.59
2024-03-28T11:23:42.390Z,38.67
2024-03-28T11:24:42.460Z,38.72
2024-03-28T11:25:42.495Z,38.64
2024-03-28T11:26:42.521Z,38.93
2024-03-28T11:27:42.528Z,38.45
2024-03-28T11:28:42.565Z,38.32
2024-03-28T11:29:42.599Z,38.53
2024-03-28T11:30:42.649Z,38.78
2024-03-28T11:31:45.460Z,38.53
2024-03-28T11:32:42.741Z,38.85
2024-03-28T11:33:42.658Z,39.55
2024-03-28T11:34:42.667Z,39.43
2024-03-28T11:35:42.678Z,39.60
2024-03-28T11:36:42.716Z,39.88
2024-03-28T11:37:42.742Z,40.25
2024-03-28T11:38:42.708Z,40.47
2024-03-28T11:39:42.697Z,40.18
2024-03-28T11:40:42.703Z,40.33
2024-03-28T11:41:42.701Z,39.67
2024-03-28T11:42:46.742Z,39.68
2024-03-28T11:43:42.712Z,39.41
2024-03-28T11:44:42.696Z,39.19
2024-03-28T11:45:42.693Z,38.99
2024-03-28T11:46:42.710Z,38.86
2024-03-28T11:47:42.706Z,38.75
2024-03-28T11:48:42.715Z,39.04
2024-03-28T11:49:42.734Z,38.85
2024-03-28T11:50:42.705Z,38.81
2024-03-28T11:51:42.703Z,39.04
2024-03-28T11:52:42.694Z,38.49
2024-03-28T11:53:49.921Z,38.48
2024-03-28T11:54:43.723Z,38.47
2024-03-28T11:55:42.722Z,38.50
2024-03-28T11:56:42.757Z,38.88
2024-03-28T11:57:42.718Z,38.92
2024-03-28T11:58:42.722Z,39.79
2024-03-28T11:59:42.739Z,39.81
2024-03-28T12:00:42.718Z,39.30
2024-03-28T12:01:42.757Z,39.53
2024-03-28T12:02:42.738Z,38.79
2024-03-28T12:03:42.758Z,38.27
2024-03-28T12:04:42.757Z,38.64
2024-03-28T12:05:42.749Z,39.42
2024-03-28T12:06:42.770Z,40.41
2024-03-28T12:07:42.893Z,38.84
2024-03-28T12:08:43.094Z,38.88
2024-03-28T12:09:42.950Z,39.29
2024-03-28T12:10:43.053Z,39.96
2024-03-28T12:11:43.029Z,40.35
2024-03-28T12:12:43.106Z,40.62
2024-03-28T12:13:43.123Z,39.38
2024-03-28T12:14:43.183Z,38.52
2024-03-28T12:15:43.237Z,37.82
2024-03-28T12:16:44.021Z,37.93
2024-03-28T12:17:43.300Z,39.09
2024-03-28T12:18:43.338Z,40.16
2024-03-28T12:19:43.365Z,41.51
2024-03-28T12:20:43.391Z,42.47
2024-03-28T12:21:43.453Z,42.80
2024-03-28T12:22:43.487Z,42.95
2024-03-28T12:23:43.509Z,43.30
2024-03-28T12:24:43.561Z,41.90
2024-03-28T12:25:43.572Z,43.09
2024-03-28T12:26:43.561Z,43.87
2024-03-28T12:27:43.590Z,43.47
2024-03-28T12:28:43.634Z,43.90
2024-03-28T12:29:43.718Z,44.42
2024-03-28T12:30:43.731Z,44.72
2024-03-28T12:31:43.753Z,44.63
2024-03-28T12:32:43.849Z,44.69
2024-03-28T12:33:43.870Z,44.92
2024-03-28T12:34:43.922Z,45.51
2024-03-28T12:35:43.951Z,46.13
2024-03-28T12:36:44.007Z,47.02
2024-03-28T12:37:43.996Z,47.37
2024-03-28T12:38:44.042Z,47.52
2024-03-28T12:39:44.152Z,48.15
2024-03-28T12:40:44.180Z,48.66
2024-03-28T12:41:44.196Z,48.83
2024-03-28T12:42:44.222Z,48.63
2024-03-28T12:43:44.286Z,48.83
2024-03-28T12:44:44.320Z,49.18
2024-03-28T12:45:44.363Z,49.30
2024-03-28T12:46:44.392Z,49.65
2024-03-28T12:47:44.420Z,49.67
2024-03-28T12:48:44.537Z,50.12
2024-03-28T12:49:44.554Z,50.33
2024-03-28T12:50:44.557Z,50.36
2024-03-28T12:51:44.660Z,50.58
2024-03-28T12:52:44.644Z,50.73